Terminal Aerodrome Forecast
Issued by NWS

Home | Current Version | Previous Version | Text Only | Print | Product List | Glossary On
Versions: 1 2 3 4 5 6 7 8 9 10 11 12 13 14 15 16
858
FTUS43 KDLH 100537
TAFBRD
TAF
KBRD 100537Z 1006/1106 31008KT P6SM OVC025
     FM101600 00000KT P6SM SCT025
     FM110400 09005KT 2SM -SN OVC015=

USA.gov is the U.S. government's official web portal to all federal, state and local government web resources and services.